Old Perlican, Canada
Current Conditions -  °F | °C
As of 12:00 PM on Sunday 21 Dec 2014 (Local Time) from CYYT Reporting Station
Overcast Overcast  
Wind Chill: 20°   Ceiling: 1800
Heat Index: 28°   Visibility: 15mi
Dew Point: 21°   Wind: 9mph
Humidity: 74%   Direction: 360°N
Pressure: 30.25"   Gusts: NA
Location:  48.08°N, 53.02°W
Report Text: CYYT 211500Z 36008KT 15SM OVC018 M02/M06 A3025 RMK SC8 SLP250
Loading
Personal Weather Stations






























Interactive Weather Map New forecast layout! Learn more

10-Day Weather Forecast

Advertisements
Track Severe Weather on mobile